Página principal
METAR-TAF:

METAR-TAF

Aeroportos :

Nouakchott, Mauritânia

Aeroporto Internacional Nouakchott-Oumtounsy

latitude: 18-18-36N, longitude: 015-58-11W, altura: 3 m

Observação actual do tempo

O boletim foi feito há 30 minutos, às 03:00 UTC
Vento 7 kt de es-nordeste
Temperatura 17°C
Humidade 20%
Pressão 1016 hPa
Visibilidade 10 km ou mais
sem nuvens abaixo de 1500 metros e sem cumulonimbus

METAR: GQNO 140300Z 07007KT CAVOK 17/M06 Q1016 NOSIG

Hora: 03:30 (03:30 UTC)

Previsão

O boletim foi feito há 4 horas e 30 minutos, às 23:00 UTC
Previsão válida de 14 às 00 UTC a 15 às 06 UTC
Vento 8 kt de nordeste
Visibilidade: 8000 m
Tornando-se
de 14 às 08 UTC a 18 às 11 UTC
Vento 16 kt de este
Visibilidade: 4000 m
Poeira levantada pelo vento
Tornando-se
de 14 às 18 UTC a 14 às 20 UTC
Vento 10 kt de nor-nordeste
Visibilidade: 7000 m

TAF: GQNO 132300Z 1400/1506 05008KT 8000 NSC BECMG 1408/1811 09016KT 4000 BLDU BECMG 1418/1420 03010KT 7000 NSW

Observações e previsões do tempo de mais de 4000 aeroportos (mensagens METAR e TAF).

As estações disponíveis são os pontos amarelos e vermelhos sobre o mapa.

Mova o rato sobre o mapa para ver o nome da estação.

Depois clique no ponto para visualizar as observações e previsões meteorológicas.

Para alterar o mapa : clique nos botões verdes com uma cruz preta para aumentar o zoom; no botão verde com uma pitada de zoom; ou nas setas verdes para mapas adjacentes.


METAR-TAF: